Time;durP1;ratioP1;P1;durP2;ratioP2;P2;SDS_P1;SDS_P2;PMS_P1;PMS_P2;Temp;Humidity;BMP_temperature;BMP_pressure;BME280_temperature;BME280_humidity;BME280_pressure;Samples;Min_cycle;Max_cycle;Signal;HPM_P1;HPM_P2
2023/12/20 00:00:48;;;;;;;5.18;3.70;;;3.70;99.90;;;;;;479581;247;27527;-71
2023/12/20 00:02:49;;;;;;;3.90;3.30;;;3.70;99.90;;;;;;479568;247;27543;-70
2023/12/20 00:04:50;;;;;;;4.10;3.70;;;3.70;99.90;;;;;;479646;247;27542;-72
2023/12/20 00:06:52;;;;;;;3.60;3.25;;;3.70;99.90;;;;;;479645;247;27566;-70
2023/12/20 00:08:53;;;;;;;4.55;4.00;;;3.70;99.90;;;;;;479620;247;27606;-73
2023/12/20 00:10:54;;;;;;;3.90;3.60;;;3.70;99.90;;;;;;479580;247;27582;-73
2023/12/20 00:12:55;;;;;;;3.78;3.45;;;3.70;99.90;;;;;;479607;247;27521;-72
2023/12/20 00:14:56;;;;;;;4.07;3.67;;;3.70;99.90;;;;;;479650;247;27511;-73
2023/12/20 00:16:58;;;;;;;4.20;3.80;;;3.70;99.90;;;;;;479636;247;28025;-72
2023/12/20 00:18:59;;;;;;;4.00;3.70;;;3.70;99.90;;;;;;479618;247;28101;-72
2023/12/20 00:21:00;;;;;;;4.90;4.40;;;3.70;99.90;;;;;;479624;247;28792;-72
2023/12/20 00:23:02;;;;;;;3.95;3.65;;;3.70;99.90;;;;;;479594;247;27938;-73
2023/12/20 00:25:03;;;;;;;3.85;3.55;;;3.70;99.90;;;;;;479577;248;27561;-73
2023/12/20 00:27:04;;;;;;;3.80;3.50;;;3.70;99.90;;;;;;479502;247;27621;-70
2023/12/20 00:29:05;;;;;;;3.55;3.25;;;3.70;99.90;;;;;;479629;247;27558;-70
2023/12/20 00:31:06;;;;;;;4.30;3.90;;;3.70;99.90;;;;;;479626;247;27539;-70
2023/12/20 00:33:08;;;;;;;4.03;3.72;;;3.70;99.90;;;;;;479614;247;27548;-70
2023/12/20 00:35:09;;;;;;;4.22;3.83;;;3.70;99.90;;;;;;479632;247;27630;-71
2023/12/20 00:37:10;;;;;;;3.75;3.42;;;3.70;99.90;;;;;;479632;247;27575;-70
2023/12/20 00:39:11;;;;;;;4.05;3.75;;;3.70;99.90;;;;;;479644;247;27527;-71
2023/12/20 00:41:13;;;;;;;3.85;3.55;;;3.70;99.90;;;;;;479636;247;27996;-73
2023/12/20 00:43:14;;;;;;;5.12;4.53;;;3.70;99.90;;;;;;479610;247;28068;-70
2023/12/20 00:45:15;;;;;;;4.10;3.50;;;3.70;99.90;;;;;;479621;247;29184;-71
2023/12/20 00:47:16;;;;;;;3.62;3.33;;;3.60;99.90;;;;;;479601;247;29076;-70
2023/12/20 00:49:18;;;;;;;4.80;3.30;;;3.70;99.90;;;;;;479642;247;27530;-71
2023/12/20 00:51:19;;;;;;;3.40;3.10;;;3.70;99.90;;;;;;479612;247;27559;-72
2023/12/20 00:53:20;;;;;;;3.80;3.50;;;3.60;99.90;;;;;;479592;247;27568;-71
2023/12/20 00:55:21;;;;;;;3.75;3.45;;;3.70;99.90;;;;;;479626;247;27554;-71
2023/12/20 00:57:23;;;;;;;3.25;2.95;;;3.70;99.90;;;;;;479597;247;27677;-71
2023/12/20 00:59:24;;;;;;;3.65;3.35;;;3.70;99.90;;;;;;479625;247;27543;-70
2023/12/20 01:01:25;;;;;;;3.67;3.37;;;3.70;99.90;;;;;;479627;247;27595;-72
2023/12/20 01:03:26;;;;;;;3.10;2.90;;;3.70;99.90;;;;;;479589;247;27566;-70
2023/12/20 01:05:28;;;;;;;3.78;3.47;;;3.70;99.90;;;;;;479630;247;28022;-70
2023/12/20 01:07:29;;;;;;;3.58;3.28;;;3.70;99.90;;;;;;479639;247;28136;-73
2023/12/20 01:09:30;;;;;;;3.65;2.85;;;3.80;99.90;;;;;;479637;247;29141;-70
2023/12/20 01:11:31;;;;;;;4.37;2.95;;;3.70;99.90;;;;;;479625;247;27528;-71
2023/12/20 01:13:33;;;;;;;3.00;2.80;;;3.70;99.90;;;;;;479569;247;27502;-72
2023/12/20 01:15:34;;;;;;;2.83;2.62;;;3.70;99.90;;;;;;479635;247;27729;-71
2023/12/20 01:17:35;;;;;;;2.80;2.60;;;3.70;99.90;;;;;;479652;247;27543;-73
2023/12/20 01:19:36;;;;;;;3.22;2.87;;;3.70;99.90;;;;;;479638;247;27492;-73
2023/12/20 01:21:38;;;;;;;3.75;3.35;;;3.70;99.90;;;;;;479603;247;27546;-72
2023/12/20 01:23:39;;;;;;;3.20;3.00;;;3.70;99.90;;;;;;479631;247;27529;-72
2023/12/20 01:25:40;;;;;;;3.35;3.05;;;3.70;99.90;;;;;;479651;247;27571;-73
2023/12/20 01:27:41;;;;;;;4.10;3.05;;;3.70;99.90;;;;;;479646;247;28090;-74
2023/12/20 01:29:43;;;;;;;2.60;2.40;;;3.70;99.90;;;;;;479611;247;28040;-72
2023/12/20 01:31:44;;;;;;;3.90;2.75;;;3.70;99.90;;;;;;479610;247;28002;-72
2023/12/20 01:33:45;;;;;;;3.92;3.10;;;3.70;99.90;;;;;;479609;247;27544;-72
2023/12/20 01:35:46;;;;;;;2.90;2.70;;;3.70;99.90;;;;;;479593;247;27564;-73
2023/12/20 01:37:48;;;;;;;3.03;2.72;;;3.70;99.90;;;;;;479612;247;27629;-73
2023/12/20 01:39:49;;;;;;;3.25;2.95;;;3.70;99.90;;;;;;479599;247;27503;-70
2023/12/20 01:41:50;;;;;;;3.08;2.78;;;3.70;99.90;;;;;;479576;247;27538;-71
2023/12/20 01:43:53;;;;;;;3.50;3.20;;;3.70;99.90;;;;;;479609;247;27556;-72
2023/12/20 01:45:53;;;;;;;3.20;2.90;;;3.80;99.90;;;;;;479585;248;27553;-71
2023/12/20 01:47:54;;;;;;;3.92;3.53;;;3.70;99.90;;;;;;479621;247;27632;-71
2023/12/20 01:49:56;;;;;;;3.40;3.10;;;3.70;99.90;;;;;;479579;247;27937;-70
2023/12/20 01:51:57;;;;;;;4.10;3.70;;;3.70;99.90;;;;;;479574;248;28011;-71
2023/12/20 01:53:58;;;;;;;3.53;3.22;;;3.70;99.90;;;;;;479593;247;28104;-71
2023/12/20 01:55:59;;;;;;;3.20;2.90;;;3.70;99.90;;;;;;479637;247;27955;-70
2023/12/20 01:58:00;;;;;;;3.60;3.30;;;3.70;99.90;;;;;;479609;247;27603;-70
2023/12/20 02:00:03;;;;;;;4.28;3.80;;;3.80;99.90;;;;;;479621;248;27627;-70
2023/12/20 02:02:03;;;;;;;4.07;3.78;;;3.80;99.90;;;;;;479525;248;27533;-71
2023/12/20 02:04:04;;;;;;;3.92;3.50;;;3.80;99.90;;;;;;479598;247;27534;-73
2023/12/20 02:06:05;;;;;;;3.78;3.47;;;3.80;99.90;;;;;;479630;247;27515;-71
2023/12/20 02:08:07;;;;;;;4.12;3.78;;;3.80;99.90;;;;;;479602;247;27577;-70
2023/12/20 02:10:08;;;;;;;4.03;3.62;;;3.80;99.90;;;;;;479671;247;27885;-73
2023/12/20 02:12:09;;;;;;;3.85;3.45;;;3.80;99.90;;;;;;479629;247;27514;-70
2023/12/20 02:14:10;;;;;;;4.05;3.65;;;3.80;99.90;;;;;;479617;247;27599;-70
2023/12/20 02:16:12;;;;;;;3.85;3.45;;;3.80;99.90;;;;;;479667;247;27945;-70
2023/12/20 02:18:15;;;;;;;4.35;3.95;;;3.70;99.90;;;;;;479660;247;28097;-70
2023/12/20 02:20:14;;;;;;;3.70;3.40;;;3.70;99.90;;;;;;479516;248;29074;-72
2023/12/20 02:22:15;;;;;;;4.45;3.25;;;3.80;99.90;;;;;;479654;247;27495;-71
2023/12/20 02:24:17;;;;;;;4.12;3.60;;;3.80;99.90;;;;;;479597;247;27637;-71
2023/12/20 02:26:18;;;;;;;3.95;3.60;;;3.80;99.90;;;;;;479610;247;27651;-71
2023/12/20 02:28:19;;;;;;;4.30;3.90;;;3.80;99.90;;;;;;479636;247;27516;-71
2023/12/20 02:30:20;;;;;;;4.20;3.60;;;3.80;99.90;;;;;;479626;247;27618;-71
2023/12/20 02:32:22;;;;;;;6.22;4.10;;;3.80;99.90;;;;;;479601;247;27641;-70
2023/12/20 02:34:23;;;;;;;3.80;3.40;;;3.80;99.90;;;;;;479526;247;27567;-71
2023/12/20 02:36:24;;;;;;;4.57;3.65;;;3.90;99.90;;;;;;479614;247;27511;-72
2023/12/20 02:38:25;;;;;;;3.80;3.50;;;3.90;99.90;;;;;;479608;247;27507;-70
2023/12/20 02:40:27;;;;;;;4.70;3.90;;;3.90;99.90;;;;;;479593;247;27552;-71
2023/12/20 02:42:28;;;;;;;4.50;4.10;;;3.80;99.90;;;;;;479597;248;28151;-71
2023/12/20 02:44:29;;;;;;;3.78;3.47;;;3.80;99.90;;;;;;479558;247;28026;-71
2023/12/20 02:46:30;;;;;;;3.83;3.53;;;3.80;99.90;;;;;;479634;247;28010;-72
2023/12/20 02:48:32;;;;;;;4.60;4.10;;;3.90;99.90;;;;;;479623;247;27604;-71
2023/12/20 02:50:33;;;;;;;4.40;4.00;;;3.90;99.90;;;;;;479620;247;27610;-71
2023/12/20 02:52:34;;;;;;;5.95;5.40;;;3.90;99.90;;;;;;479591;247;27487;-72
2023/12/20 02:54:35;;;;;;;4.53;4.12;;;3.90;99.90;;;;;;479574;247;27624;-70
2023/12/20 02:56:37;;;;;;;4.93;4.53;;;3.90;99.90;;;;;;479644;247;27540;-72
2023/12/20 02:58:38;;;;;;;5.30;4.78;;;3.90;99.90;;;;;;479620;247;27555;-70
2023/12/20 03:00:39;;;;;;;4.90;4.50;;;3.90;99.90;;;;;;479607;247;27568;-70
2023/12/20 03:02:40;;;;;;;5.72;5.20;;;4.00;99.90;;;;;;479590;247;27568;-70
2023/12/20 03:04:42;;;;;;;5.50;4.90;;;3.90;99.90;;;;;;479632;247;27574;-70
2023/12/20 03:06:43;;;;;;;6.05;5.45;;;4.00;99.90;;;;;;479624;247;27992;-71
2023/12/20 03:08:44;;;;;;;5.93;5.32;;;4.00;99.90;;;;;;479599;247;27950;-74
2023/12/20 03:10:45;;;;;;;6.62;5.97;;;4.00;99.90;;;;;;479586;247;28102;-71
2023/12/20 03:12:47;;;;;;;7.80;6.18;;;4.00;99.90;;;;;;479596;247;27544;-70
2023/12/20 03:14:48;;;;;;;9.40;6.80;;;4.00;99.90;;;;;;479626;247;27621;-70
2023/12/20 03:16:49;;;;;;;6.53;5.93;;;4.00;99.90;;;;;;479605;247;27579;-71
2023/12/20 03:18:50;;;;;;;6.45;5.80;;;4.00;99.90;;;;;;479572;247;27504;-72
2023/12/20 03:20:52;;;;;;;7.97;6.43;;;4.00;99.90;;;;;;479609;247;27627;-73
2023/12/20 03:22:53;;;;;;;10.30;7.03;;;4.00;99.90;;;;;;479624;247;27924;-75
2023/12/20 03:24:54;;;;;;;6.35;5.75;;;4.00;99.90;;;;;;479562;247;27505;-73
2023/12/20 03:26:55;;;;;;;9.15;7.37;;;4.00;99.90;;;;;;479607;247;27582;-72
2023/12/20 03:28:57;;;;;;;9.35;7.75;;;4.00;99.90;;;;;;479621;247;27963;-73
2023/12/20 03:30:58;;;;;;;7.57;6.65;;;4.00;99.90;;;;;;479592;247;28134;-72
2023/12/20 03:32:59;;;;;;;11.65;6.95;;;4.00;99.90;;;;;;479600;247;28037;-74
2023/12/20 03:35:00;;;;;;;10.35;7.60;;;4.00;99.90;;;;;;479643;247;27485;-72
2023/12/20 03:37:02;;;;;;;14.85;9.02;;;4.00;99.90;;;;;;479625;247;27554;-73
2023/12/20 03:39:03;;;;;;;11.15;9.30;;;4.00;99.90;;;;;;479604;247;27555;-72
2023/12/20 03:41:04;;;;;;;46.70;11.93;;;4.00;99.90;;;;;;479627;247;27488;-73
2023/12/20 03:43:05;;;;;;;13.25;8.68;;;4.00;99.90;;;;;;479585;247;27570;-73
2023/12/20 03:45:07;;;;;;;12.35;8.82;;;4.00;99.90;;;;;;479622;247;27496;-72
2023/12/20 03:47:08;;;;;;;9.48;7.65;;;4.00;99.90;;;;;;479631;247;28009;-70
2023/12/20 03:49:09;;;;;;;11.88;8.35;;;4.10;99.90;;;;;;479575;247;27979;-71
2023/12/20 03:51:10;;;;;;;19.95;8.35;;;4.10;99.90;;;;;;479617;247;27931;-70
2023/12/20 03:53:12;;;;;;;12.30;7.93;;;4.10;99.90;;;;;;479576;247;27543;-73
2023/12/20 03:55:13;;;;;;;29.40;10.20;;;4.10;99.90;;;;;;479515;247;27489;-73
2023/12/20 03:57:14;;;;;;;12.68;7.80;;;4.10;99.90;;;;;;479609;247;27534;-72
2023/12/20 03:59:15;;;;;;;18.80;8.60;;;4.10;99.90;;;;;;479680;247;27543;-72
2023/12/20 04:01:17;;;;;;;37.63;9.93;;;4.10;99.90;;;;;;479638;247;27577;-72
2023/12/20 04:03:18;;;;;;;38.67;10.25;;;4.10;99.90;;;;;;479546;247;27570;-72
2023/12/20 04:05:19;;;;;;;46.20;11.55;;;4.10;99.90;;;;;;479546;247;28810;-72
2023/12/20 04:07:21;;;;;;;13.57;9.45;;;4.10;99.90;;;;;;479607;247;27943;-72
2023/12/20 04:09:22;;;;;;;62.78;11.10;;;4.10;99.90;;;;;;479597;247;27644;-73
2023/12/20 04:11:23;;;;;;;46.33;9.43;;;4.10;99.90;;;;;;479559;247;27602;-73
2023/12/20 04:13:24;;;;;;;29.05;9.82;;;4.00;99.90;;;;;;479561;247;27598;-73
2023/12/20 04:15:25;;;;;;;221.00;15.65;;;4.10;99.90;;;;;;479628;247;27969;-72
2023/12/20 04:17:27;;;;;;;82.65;10.65;;;4.10;99.90;;;;;;479620;248;27514;-72
2023/12/20 04:19:28;;;;;;;69.95;10.73;;;4.00;99.90;;;;;;479604;247;27530;-72
2023/12/20 04:21:29;;;;;;;79.05;12.10;;;4.00;99.90;;;;;;479608;247;27920;-72
2023/12/20 04:23:31;;;;;;;17.67;9.10;;;4.10;99.90;;;;;;479560;247;27514;-72
2023/12/20 04:25:32;;;;;;;22.80;9.45;;;4.00;99.90;;;;;;479641;247;27690;-74
2023/12/20 04:27:33;;;;;;;59.70;11.70;;;4.10;99.90;;;;;;479633;247;27475;-73
2023/12/20 04:29:34;;;;;;;71.78;12.48;;;4.10;99.90;;;;;;479622;247;27547;-72
2023/12/20 04:31:36;;;;;;;70.00;11.63;;;4.10;99.90;;;;;;479593;247;27483;-72
2023/12/20 04:33:37;;;;;;;121.40;14.70;;;4.00;99.90;;;;;;479594;247;27921;-73
2023/12/20 04:35:40;;;;;;;76.57;13.27;;;4.00;99.90;;;;;;479632;247;28052;-72
2023/12/20 04:37:39;;;;;;;19.80;10.38;;;4.00;99.90;;;;;;479490;248;27503;-72
2023/12/20 04:39:41;;;;;;;38.65;10.48;;;4.10;99.90;;;;;;479619;247;27539;-72
2023/12/20 04:41:42;;;;;;;15.07;9.80;;;4.10;99.90;;;;;;479663;247;27878;-72
2023/12/20 04:43:43;;;;;;;25.40;11.07;;;4.10;99.90;;;;;;479593;248;27500;-72
2023/12/20 04:45:44;;;;;;;20.62;10.55;;;4.10;99.90;;;;;;479628;247;27668;-72
2023/12/20 04:47:46;;;;;;;17.10;9.73;;;4.10;99.90;;;;;;479641;247;27938;-72
2023/12/20 04:49:47;;;;;;;14.63;9.48;;;4.10;99.90;;;;;;479600;247;27992;-73
2023/12/20 04:51:49;;;;;;;14.70;9.65;;;4.10;99.90;;;;;;479668;247;27551;-75
2023/12/20 04:53:49;;;;;;;15.77;10.65;;;4.10;99.90;;;;;;479610;247;27492;-74
2023/12/20 04:55:51;;;;;;;12.63;8.48;;;4.20;99.90;;;;;;479630;247;27562;-72
2023/12/20 04:57:52;;;;;;;13.73;9.20;;;4.20;99.90;;;;;;479614;247;27476;-72
2023/12/20 04:59:53;;;;;;;17.52;10.40;;;4.20;99.90;;;;;;479688;247;27577;-73
2023/12/20 05:01:54;;;;;;;14.95;10.05;;;4.20;99.90;;;;;;479597;247;27609;-74
2023/12/20 05:03:56;;;;;;;14.23;9.38;;;4.20;99.90;;;;;;479570;247;28024;-72
2023/12/20 05:05:57;;;;;;;11.45;8.48;;;4.20;99.90;;;;;;479653;247;28023;-72
2023/12/20 05:07:58;;;;;;;9.95;8.35;;;4.30;99.90;;;;;;479667;247;27531;-72
2023/12/20 05:09:59;;;;;;;9.80;8.35;;;4.30;99.90;;;;;;479674;247;27497;-72
2023/12/20 05:12:01;;;;;;;11.10;8.93;;;4.30;99.90;;;;;;479623;247;27513;-72
2023/12/20 05:14:02;;;;;;;8.80;7.85;;;4.30;99.90;;;;;;479597;247;27576;-72
2023/12/20 05:16:03;;;;;;;9.68;8.15;;;4.30;99.90;;;;;;479579;247;27551;-72
2023/12/20 05:18:04;;;;;;;10.98;8.73;;;4.40;99.90;;;;;;479618;247;27525;-73
2023/12/20 05:20:06;;;;;;;13.62;9.75;;;4.30;99.90;;;;;;479636;247;27501;-72
2023/12/20 05:22:07;;;;;;;10.93;8.35;;;4.40;99.90;;;;;;479615;247;28124;-72
2023/12/20 05:24:08;;;;;;;11.25;8.48;;;4.40;99.90;;;;;;479439;247;28049;-72
2023/12/20 05:26:09;;;;;;;9.35;8.15;;;4.40;99.90;;;;;;479640;247;27502;-73
2023/12/20 05:28:11;;;;;;;9.18;8.10;;;4.40;99.90;;;;;;479625;247;27642;-73
2023/12/20 05:30:12;;;;;;;10.38;7.60;;;4.30;99.90;;;;;;479615;247;27518;-72
2023/12/20 05:32:13;;;;;;;8.85;7.87;;;4.40;99.90;;;;;;479619;247;27637;-72
2023/12/20 05:34:15;;;;;;;11.05;9.32;;;4.40;99.90;;;;;;479581;247;27525;-72
2023/12/20 05:36:16;;;;;;;9.75;8.70;;;4.30;99.90;;;;;;479659;247;27497;-72
2023/12/20 05:38:17;;;;;;;11.80;9.32;;;4.40;99.90;;;;;;479626;247;28023;-73
2023/12/20 05:40:18;;;;;;;12.10;9.65;;;4.40;99.90;;;;;;479618;247;29105;-72
2023/12/20 05:42:20;;;;;;;10.63;9.02;;;4.40;99.90;;;;;;479603;247;27531;-73
2023/12/20 05:44:21;;;;;;;11.63;9.45;;;4.40;99.90;;;;;;479601;247;27635;-74
2023/12/20 05:46:22;;;;;;;12.82;10.48;;;4.40;99.90;;;;;;479594;247;27511;-72
2023/12/20 05:48:23;;;;;;;11.70;9.15;;;4.40;99.90;;;;;;479601;247;27535;-73
2023/12/20 05:50:25;;;;;;;13.18;9.73;;;4.40;99.90;;;;;;479569;247;27551;-72
2023/12/20 05:52:26;;;;;;;12.00;9.70;;;4.40;99.90;;;;;;479596;247;27975;-72
2023/12/20 05:54:27;;;;;;;11.75;8.95;;;4.40;99.90;;;;;;479594;247;28007;-73
2023/12/20 05:56:28;;;;;;;13.13;9.73;;;4.40;99.90;;;;;;479601;247;27629;-73
2023/12/20 05:58:30;;;;;;;13.57;8.52;;;4.30;99.90;;;;;;479574;247;27626;-72
2023/12/20 06:00:31;;;;;;;9.52;7.40;;;4.30;99.90;;;;;;479617;247;27520;-72
2023/12/20 06:02:32;;;;;;;8.30;7.40;;;4.30;99.90;;;;;;479610;247;27606;-73
2023/12/20 06:04:33;;;;;;;8.35;7.30;;;4.20;99.90;;;;;;479559;247;27642;-72
2023/12/20 06:06:35;;;;;;;9.05;7.85;;;4.20;99.90;;;;;;479597;247;27593;-72
2023/12/20 06:08:36;;;;;;;9.85;6.72;;;4.20;99.90;;;;;;479585;247;27524;-72
2023/12/20 06:10:37;;;;;;;11.40;6.90;;;4.10;99.90;;;;;;479641;247;27624;-74
2023/12/20 06:12:38;;;;;;;7.20;6.07;;;4.10;99.90;;;;;;479611;247;27551;-77
2023/12/20 06:14:40;;;;;;;7.80;6.50;;;4.10;99.90;;;;;;479566;247;27674;-72
2023/12/20 06:16:41;;;;;;;8.10;5.25;;;4.10;99.90;;;;;;479615;247;28013;-72
2023/12/20 06:18:42;;;;;;;6.30;5.00;;;4.10;99.90;;;;;;479635;247;27515;-72
2023/12/20 06:20:43;;;;;;;7.37;4.65;;;4.10;99.90;;;;;;479574;247;27619;-73
2023/12/20 06:22:45;;;;;;;5.35;4.12;;;4.10;99.90;;;;;;479574;247;27491;-72
2023/12/20 06:24:46;;;;;;;7.82;4.65;;;4.10;99.90;;;;;;479526;247;28016;-72
2023/12/20 06:26:47;;;;;;;4.22;3.80;;;4.10;99.90;;;;;;479626;247;28101;-75
2023/12/20 06:28:48;;;;;;;8.02;4.10;;;4.10;99.90;;;;;;479608;247;28109;-73
2023/12/20 06:30:52;;;;;;;8.68;4.43;;;4.10;99.90;;;;;;479588;247;27532;-72
2023/12/20 06:32:51;;;;;;;3.95;3.58;;;4.10;99.90;;;;;;479461;248;27499;-72
2023/12/20 06:34:52;;;;;;;5.68;4.30;;;4.10;99.90;;;;;;479651;247;27524;-73
2023/12/20 06:36:53;;;;;;;5.12;4.40;;;4.10;99.90;;;;;;479631;247;27533;-75
2023/12/20 06:38:55;;;;;;;4.25;3.85;;;4.10;99.90;;;;;;479636;247;27506;-73
2023/12/20 06:40:58;;;;;;;4.87;4.00;;;4.10;99.90;;;;;;479607;247;27535;-73
2023/12/20 06:42:57;;;;;;;9.00;4.25;;;4.10;99.90;;;;;;479441;247;27491;-73
2023/12/20 06:44:58;;;;;;;3.60;3.30;;;4.10;99.90;;;;;;479592;247;27666;-72
2023/12/20 06:47:00;;;;;;;4.30;3.78;;;4.10;99.90;;;;;;479606;247;27531;-73
2023/12/20 06:49:01;;;;;;;4.70;3.90;;;4.10;99.90;;;;;;479630;247;28132;-73
2023/12/20 06:51:02;;;;;;;3.90;3.60;;;4.10;99.90;;;;;;479579;247;27980;-72
2023/12/20 06:53:06;;;;;;;5.15;4.37;;;4.10;99.90;;;;;;479553;247;27897;-73
2023/12/20 06:55:05;;;;;;;4.78;3.92;;;4.00;99.90;;;;;;479440;248;27485;-72
2023/12/20 06:57:06;;;;;;;7.12;5.00;;;3.90;99.90;;;;;;479611;247;27527;-73
2023/12/20 06:59:07;;;;;;;7.90;5.45;;;3.80;99.90;;;;;;479630;247;27514;-73
2023/12/20 07:01:08;;;;;;;5.20;4.70;;;3.80;99.90;;;;;;479619;247;27545;-73
2023/12/20 07:03:10;;;;;;;11.35;5.78;;;3.80;99.90;;;;;;479610;247;27935;-72
2023/12/20 07:05:11;;;;;;;8.05;5.70;;;3.80;99.90;;;;;;479610;248;27487;-72
2023/12/20 07:07:12;;;;;;;6.65;5.87;;;3.80;99.90;;;;;;479630;247;27550;-73
2023/12/20 07:09:13;;;;;;;10.13;5.93;;;3.80;99.90;;;;;;479622;247;27489;-72
2023/12/20 07:11:15;;;;;;;7.25;5.30;;;3.80;99.90;;;;;;479610;247;27979;-73
2023/12/20 07:13:16;;;;;;;8.68;4.93;;;3.80;99.90;;;;;;479594;247;28146;-74
2023/12/20 07:15:18;;;;;;;5.03;4.53;;;3.70;99.90;;;;;;479629;247;27979;-72
2023/12/20 07:17:18;;;;;;;6.68;5.15;;;3.60;99.90;;;;;;479616;247;27565;-73
2023/12/20 07:19:20;;;;;;;6.28;4.60;;;3.60;99.90;;;;;;479634;247;27572;-72
2023/12/20 07:21:21;;;;;;;8.50;4.90;;;3.70;99.90;;;;;;479634;247;27584;-72
2023/12/20 07:23:22;;;;;;;7.20;4.18;;;3.70;99.90;;;;;;479604;247;27547;-73
2023/12/20 07:25:23;;;;;;;4.60;4.07;;;3.70;99.90;;;;;;478646;240;27497;-72
2023/12/20 07:27:25;;;;;;;9.73;4.37;;;3.70;99.90;;;;;;474284;250;27596;-72
2023/12/20 07:29:26;;;;;;;7.03;4.20;;;3.70;99.90;;;;;;474342;251;27552;-73
2023/12/20 07:31:27;;;;;;;9.95;3.87;;;3.70;99.90;;;;;;474318;251;27600;-73
2023/12/20 07:33:28;;;;;;;6.03;3.22;;;3.80;99.90;;;;;;474303;250;27631;-72
2023/12/20 07:35:30;;;;;;;5.07;3.58;;;3.80;99.90;;;;;;474318;251;27516;-72
2023/12/20 07:37:31;;;;;;;8.82;3.40;;;3.80;99.90;;;;;;474318;251;28204;-73
2023/12/20 07:39:32;;;;;;;5.97;3.62;;;3.80;99.90;;;;;;474344;251;28066;-74
2023/12/20 07:41:33;;;;;;;7.03;3.65;;;3.80;99.90;;;;;;474313;251;27972;-72
2023/12/20 07:43:35;;;;;;;8.32;3.20;;;3.80;99.90;;;;;;474276;250;27646;-72
2023/12/20 07:45:36;;;;;;;8.20;3.45;;;3.80;99.90;;;;;;474291;251;27420;-72
2023/12/20 07:47:37;;;;;;;9.15;3.30;;;3.80;99.90;;;;;;474318;251;27572;-72
2023/12/20 07:49:38;;;;;;;8.13;3.42;;;3.80;99.90;;;;;;474332;251;27548;-74
2023/12/20 07:51:40;;;;;;;4.40;3.35;;;3.80;99.90;;;;;;474309;251;27508;-72
2023/12/20 07:53:41;;;;;;;6.45;3.10;;;3.80;99.90;;;;;;474301;251;27616;-73
2023/12/20 07:55:43;;;;;;;6.57;2.55;;;3.80;99.90;;;;;;474305;251;27611;-72
2023/12/20 07:57:44;;;;;;;11.45;3.40;;;3.70;99.90;;;;;;474308;251;27501;-72
2023/12/20 07:59:45;;;;;;;8.48;3.22;;;3.70;99.90;;;;;;474321;251;27659;-74
2023/12/20 08:01:46;;;;;;;9.95;3.30;;;3.70;99.90;;;;;;474315;251;27957;-72
2023/12/20 08:03:47;;;;;;;8.75;3.70;;;3.70;99.90;;;;;;474278;251;28039;-72
2023/12/20 08:05:49;;;;;;;6.87;3.30;;;3.80;99.90;;;;;;474308;251;28015;-70
2023/12/20 08:07:50;;;;;;;12.85;3.37;;;3.80;99.90;;;;;;474329;251;27601;-71
2023/12/20 08:09:51;;;;;;;11.00;4.18;;;3.90;99.90;;;;;;474272;251;27662;-72
2023/12/20 08:11:52;;;;;;;10.63;3.87;;;3.90;99.90;;;;;;474318;251;27679;-72
2023/12/20 08:13:54;;;;;;;11.02;3.45;;;4.00;99.90;;;;;;474297;251;27556;-73
2023/12/20 08:15:55;;;;;;;4.30;3.25;;;4.00;99.90;;;;;;474339;251;27921;-76
2023/12/20 08:17:56;;;;;;;7.93;3.80;;;4.00;99.90;;;;;;474319;251;27508;-73
2023/12/20 08:19:57;;;;;;;13.30;4.10;;;4.00;99.90;;;;;;474323;251;27583;-73
2023/12/20 08:21:59;;;;;;;10.13;4.03;;;3.90;99.90;;;;;;474302;251;27976;-72
2023/12/20 08:24:03;;;;;;;14.15;4.30;;;3.90;99.90;;;;;;474278;251;27988;-72
2023/12/20 08:26:01;;;;;;;6.82;4.00;;;3.90;99.90;;;;;;474093;251;27576;-73
2023/12/20 08:28:02;;;;;;;12.20;4.37;;;3.90;99.90;;;;;;474332;251;27607;-72
2023/12/20 08:30:04;;;;;;;13.68;4.50;;;3.90;99.90;;;;;;474310;251;27661;-73
2023/12/20 08:32:05;;;;;;;13.27;3.67;;;3.90;99.90;;;;;;474324;251;27606;-72
2023/12/20 08:34:06;;;;;;;8.70;4.03;;;4.00;99.90;;;;;;474290;250;27544;-70
2023/12/20 08:36:07;;;;;;;8.63;4.40;;;4.00;99.90;;;;;;474329;251;27659;-71
2023/12/20 08:38:09;;;;;;;10.27;4.43;;;4.00;99.90;;;;;;474308;251;27524;-71
2023/12/20 08:40:10;;;;;;;12.30;4.47;;;4.10;99.90;;;;;;474316;251;27559;-71
2023/12/20 08:42:11;;;;;;;10.13;3.80;;;4.10;99.90;;;;;;474328;251;28154;-72
2023/12/20 08:44:13;;;;;;;12.65;4.62;;;4.10;99.90;;;;;;474306;251;28353;-72
2023/12/20 08:46:14;;;;;;;10.40;4.50;;;4.10;99.90;;;;;;474246;251;27676;-71
2023/12/20 08:48:15;;;;;;;17.33;4.37;;;4.10;99.90;;;;;;474332;251;27517;-70
2023/12/20 08:50:16;;;;;;;7.95;3.60;;;4.20;99.90;;;;;;474350;251;27456;-71
2023/12/20 08:52:17;;;;;;;10.77;4.70;;;4.20;99.90;;;;;;474364;251;27584;-74
2023/12/20 08:54:19;;;;;;;11.73;3.80;;;4.20;99.90;;;;;;474304;251;27524;-70
2023/12/20 08:56:20;;;;;;;12.88;4.47;;;4.20;99.90;;;;;;474322;251;27536;-70
2023/12/20 08:58:21;;;;;;;11.55;5.10;;;4.20;99.90;;;;;;474332;251;28904;-71
2023/12/20 09:00:25;;;;;;;12.10;4.18;;;4.30;99.90;;;;;;474360;251;27999;-71
2023/12/20 09:02:24;;;;;;;11.32;4.30;;;4.30;99.90;;;;;;474191;251;27654;-71
2023/12/20 09:04:25;;;;;;;15.50;4.25;;;4.30;99.90;;;;;;474282;251;27425;-70
2023/12/20 09:06:26;;;;;;;11.35;4.40;;;4.30;99.90;;;;;;474335;250;27571;-71
2023/12/20 09:08:27;;;;;;;12.98;4.82;;;4.30;99.90;;;;;;474345;251;27571;-74
2023/12/20 09:10:29;;;;;;;10.02;4.37;;;4.40;99.90;;;;;;474337;251;27616;-70
2023/12/20 09:12:30;;;;;;;11.25;5.07;;;4.40;99.90;;;;;;474366;251;27546;-71
2023/12/20 09:14:31;;;;;;;10.40;4.10;;;4.50;99.90;;;;;;474339;251;27973;-70
2023/12/20 09:16:32;;;;;;;12.93;4.35;;;4.50;99.90;;;;;;474352;251;28033;-74
2023/12/20 09:18:34;;;;;;;14.18;4.93;;;4.60;99.90;;;;;;474357;251;27556;-75
2023/12/20 09:20:35;;;;;;;9.60;4.60;;;4.80;99.90;;;;;;474325;251;27659;-71
2023/12/20 09:22:38;;;;;;;9.75;4.72;;;4.90;99.90;;;;;;474318;251;27659;-71
2023/12/20 09:24:38;;;;;;;11.77;5.20;;;5.00;99.90;;;;;;474098;251;27472;-71
2023/12/20 09:26:39;;;;;;;15.40;4.80;;;4.90;99.90;;;;;;474326;251;27473;-71
2023/12/20 09:28:40;;;;;;;8.40;4.45;;;4.80;99.90;;;;;;474298;251;28084;-74
2023/12/20 09:30:41;;;;;;;9.77;4.35;;;4.70;99.90;;;;;;474342;250;28050;-71
2023/12/20 09:32:43;;;;;;;8.45;4.75;;;4.70;99.90;;;;;;474287;251;27570;-74
2023/12/20 09:34:44;;;;;;;10.25;4.32;;;4.70;99.90;;;;;;474317;251;27445;-73
2023/12/20 09:36:48;;;;;;;19.30;5.80;;;4.70;99.90;;;;;;474350;251;27520;-72
2023/12/20 09:38:49;;;;;;;12.32;4.87;;;4.70;99.90;;;;;;474336;251;27505;-71
2023/12/20 09:40:50;;;;;;;8.93;5.85;;;4.70;99.90;;;;;;474300;251;27706;-73
2023/12/20 09:42:52;;;;;;;13.80;6.03;;;4.80;99.90;;;;;;474282;251;27513;-71
2023/12/20 09:44:53;;;;;;;16.77;5.97;;;4.80;99.90;;;;;;474313;251;27460;-70
2023/12/20 09:46:54;;;;;;;13.00;5.05;;;4.80;99.90;;;;;;474333;250;27564;-72
2023/12/20 09:48:55;;;;;;;7.12;4.00;;;4.90;99.90;;;;;;474350;251;28094;-71
2023/12/20 09:50:57;;;;;;;12.95;4.90;;;4.90;99.90;;;;;;474323;250;28040;-73
2023/12/20 09:52:59;;;;;;;26.60;8.68;;;4.90;99.90;;;;;;474278;251;27455;-71
2023/12/20 09:54:59;;;;;;;9.52;6.30;;;4.90;99.90;;;;;;474255;251;27539;-72
2023/12/20 09:57:00;;;;;;;14.38;5.70;;;4.80;99.90;;;;;;474348;251;27653;-72
2023/12/20 09:59:02;;;;;;;7.80;4.70;;;4.70;99.90;;;;;;474321;251;27598;-71
2023/12/20 10:01:03;;;;;;;5.15;4.47;;;4.70;99.90;;;;;;474290;251;27664;-71
2023/12/20 10:03:04;;;;;;;12.82;5.12;;;4.80;99.90;;;;;;474287;251;27532;-73
2023/12/20 10:05:08;;;;;;;10.98;4.70;;;4.80;99.90;;;;;;474373;251;28048;-70
2023/12/20 10:07:07;;;;;;;11.10;4.80;;;4.70;99.90;;;;;;474191;251;27571;-71
2023/12/20 10:09:08;;;;;;;11.48;5.65;;;4.70;99.90;;;;;;474280;251;27582;-73
2023/12/20 10:11:09;;;;;;;12.88;5.30;;;4.80;99.90;;;;;;474280;251;27583;-73
2023/12/20 10:13:10;;;;;;;9.50;5.45;;;4.80;99.90;;;;;;474304;251;28140;-75
2023/12/20 10:15:12;;;;;;;17.83;5.15;;;4.80;99.90;;;;;;474318;251;27979;-73
2023/12/20 10:17:13;;;;;;;13.48;5.35;;;4.80;99.90;;;;;;474324;251;27591;-71
2023/12/20 10:19:15;;;;;;;16.80;5.82;;;4.80;99.90;;;;;;474305;249;27507;-71
2023/12/20 10:21:17;;;;;;;11.93;5.55;;;4.70;99.90;;;;;;474338;250;27620;-72
2023/12/20 10:23:18;;;;;;;12.77;5.50;;;4.70;99.90;;;;;;474270;251;27547;-70
2023/12/20 10:25:19;;;;;;;11.70;5.57;;;4.60;99.90;;;;;;474301;251;27557;-71
2023/12/20 10:27:20;;;;;;;8.90;5.25;;;4.60;99.90;;;;;;474298;251;28668;-72
2023/12/20 10:29:22;;;;;;;13.55;5.65;;;4.60;99.90;;;;;;474334;251;27979;-73
2023/12/20 10:31:23;;;;;;;11.63;6.00;;;4.70;99.90;;;;;;474333;250;27551;-74
2023/12/20 10:33:24;;;;;;;10.25;5.30;;;4.60;99.90;;;;;;474307;251;27517;-72
2023/12/20 10:35:25;;;;;;;12.90;5.80;;;4.60;99.90;;;;;;474330;251;27571;-72